Time;durP1;ratioP1;P1;durP2;ratioP2;P2;SDS_P1;SDS_P2;PMS_P1;PMS_P2;Temp;Humidity;BMP_temperature;BMP_pressure;BME280_temperature;BME280_humidity;BME280_pressure;Samples;Min_cycle;Max_cycle;Signal;HPM_P1;HPM_P2
2023/06/15 00:02:13;;;;;;;3.73;3.73;;;18.40;99.90;;;;;;4963728;28;20473;-76
2023/06/15 00:04:40;;;;;;;4.77;4.40;;;18.40;99.90;;;;;;4965282;28;20464;-77
2023/06/15 00:07:06;;;;;;;4.40;4.30;;;18.50;99.90;;;;;;4977532;28;20197;-76
2023/06/15 00:09:31;;;;;;;4.23;4.13;;;18.50;99.90;;;;;;4967152;28;20851;-76
2023/06/15 00:11:57;;;;;;;4.23;4.23;;;18.50;99.90;;;;;;4962197;28;20472;-77
2023/06/15 00:14:23;;;;;;;4.20;4.10;;;18.50;99.90;;;;;;4964386;28;20202;-76
2023/06/15 00:16:52;;;;;;;4.90;4.10;;;18.50;99.90;;;;;;4962349;28;20397;-77
2023/06/15 00:19:19;;;;;;;12.43;4.43;;;18.40;99.90;;;;;;4974019;28;20248;-77
2023/06/15 00:21:48;;;;;;;5.00;4.90;;;18.20;99.90;;;;;;4969668;28;20464;-77
2023/06/15 00:24:14;;;;;;;4.30;4.10;;;18.20;99.90;;;;;;4974834;28;20440;-77
2023/06/15 00:26:40;;;;;;;4.80;4.60;;;18.10;99.90;;;;;;4985020;28;21017;-77
2023/06/15 00:29:05;;;;;;;4.37;4.27;;;18.00;99.90;;;;;;4972703;28;20588;-75
2023/06/15 00:31:31;;;;;;;4.90;4.60;;;18.00;99.90;;;;;;4976246;28;20707;-77
2023/06/15 00:33:57;;;;;;;19.03;4.87;;;17.90;99.90;;;;;;4977631;28;20593;-76
2023/06/15 00:36:22;;;;;;;4.80;4.80;;;17.80;99.90;;;;;;4973596;28;20221;-77
2023/06/15 00:38:48;;;;;;;4.67;4.47;;;17.80;99.90;;;;;;4970253;28;20682;-75
2023/06/15 00:41:14;;;;;;;4.43;4.43;;;17.70;99.90;;;;;;4972290;28;20313;-75
2023/06/15 00:43:41;;;;;;;5.07;4.97;;;17.70;99.90;;;;;;4973231;28;20256;-75
2023/06/15 00:46:07;;;;;;;3.90;3.90;;;17.70;99.90;;;;;;4967178;28;20190;-77
2023/06/15 00:48:33;;;;;;;4.63;4.47;;;17.70;99.90;;;;;;4966102;28;20468;-76
2023/06/15 00:50:59;;;;;;;4.40;4.40;;;17.60;99.90;;;;;;4983830;28;20313;-77
2023/06/15 00:53:25;;;;;;;4.20;4.20;;;17.70;99.90;;;;;;4967690;28;20440;-76
2023/06/15 00:55:52;;;;;;;4.73;4.70;;;17.60;99.90;;;;;;4965337;28;20460;-77
2023/06/15 00:58:18;;;;;;;4.70;4.33;;;17.70;99.90;;;;;;4961318;28;20726;-76
2023/06/15 01:00:48;;;;;;;4.90;4.73;;;17.70;99.90;;;;;;4971012;28;20438;-77
2023/06/15 01:03:15;;;;;;;4.30;4.20;;;17.60;99.90;;;;;;4973755;28;20456;-76
2023/06/15 01:05:44;;;;;;;4.50;4.20;;;17.60;99.90;;;;;;4974777;28;20514;-75
2023/06/15 01:08:13;;;;;;;4.40;4.20;;;17.50;99.90;;;;;;4965302;28;20473;-76
2023/06/15 01:10:40;;;;;;;4.53;4.33;;;17.60;99.90;;;;;;4969791;28;20818;-76
2023/06/15 01:13:10;;;;;;;3.50;3.50;;;17.60;99.90;;;;;;4971660;28;20451;-76
2023/06/15 01:15:36;;;;;;;4.27;4.27;;;17.60;99.90;;;;;;4973017;28;20796;-77
2023/06/15 01:18:03;;;;;;;4.40;4.27;;;17.70;99.90;;;;;;4966554;28;20447;-77
2023/06/15 01:20:39;;;;;;;5.17;4.87;;;17.70;99.90;;;;;;4966986;28;20437;-76
2023/06/15 01:23:10;;;;;;;4.53;4.23;;;17.50;99.90;;;;;;4961965;28;20447;-76
2023/06/15 01:25:45;;;;;;;5.10;4.80;;;17.40;99.90;;;;;;4972270;28;20520;-76
2023/06/15 01:28:17;;;;;;;5.33;4.93;;;17.30;99.90;;;;;;4971120;28;20487;-75
2023/06/15 01:30:45;;;;;;;4.80;4.70;;;17.20;99.90;;;;;;4987969;28;20477;-75
2023/06/15 01:33:11;;;;;;;4.27;4.27;;;17.10;99.90;;;;;;4971086;28;20457;-76
2023/06/15 01:35:37;;;;;;;4.90;4.80;;;17.10;99.90;;;;;;4975377;28;20841;-76
2023/06/15 01:38:03;;;;;;;7.80;4.70;;;17.10;99.90;;;;;;4970834;28;21479;-76
2023/06/15 01:40:32;;;;;;;4.57;4.47;;;17.10;99.90;;;;;;4966592;28;20194;-77
2023/06/15 01:42:59;;;;;;;4.67;4.57;;;17.10;99.90;;;;;;4981855;28;20511;-77
2023/06/15 01:45:26;;;;;;;4.63;4.43;;;17.20;99.90;;;;;;4976293;28;20441;-76
2023/06/15 01:47:52;;;;;;;4.33;4.33;;;17.10;99.90;;;;;;4966882;28;21037;-77
2023/06/15 01:50:19;;;;;;;4.90;4.77;;;17.00;99.90;;;;;;4988429;28;20504;-78
2023/06/15 01:52:45;;;;;;;4.60;4.50;;;17.10;99.90;;;;;;4969048;28;20447;-78
2023/06/15 01:55:11;;;;;;;5.37;5.00;;;17.10;99.90;;;;;;4967011;28;20426;-75
2023/06/15 01:57:41;;;;;;;4.70;4.70;;;17.20;99.90;;;;;;4962988;28;20537;-76
2023/06/15 02:00:08;;;;;;;4.70;4.60;;;17.10;99.90;;;;;;4970076;28;20425;-76
2023/06/15 02:02:34;;;;;;;4.83;4.80;;;17.10;99.90;;;;;;4980327;28;20529;-76
2023/06/15 02:05:03;;;;;;;5.77;5.50;;;17.10;99.90;;;;;;4969433;28;20553;-76
2023/06/15 02:07:28;;;;;;;4.87;4.77;;;17.10;99.90;;;;;;4964051;28;20561;-76
2023/06/15 02:09:54;;;;;;;5.53;5.13;;;17.00;99.90;;;;;;4977511;28;20771;-76
2023/06/15 02:12:20;;;;;;;4.33;4.13;;;17.00;99.90;;;;;;4961163;28;20202;-76
2023/06/15 02:14:49;;;;;;;5.07;4.83;;;17.00;99.90;;;;;;4970744;28;20170;-77
2023/06/15 02:17:18;;;;;;;4.90;4.80;;;17.00;99.90;;;;;;4963448;28;20570;-76
2023/06/15 02:19:47;;;;;;;5.30;5.20;;;16.80;99.90;;;;;;4972786;28;20417;-76
2023/06/15 02:22:15;;;;;;;5.00;4.80;;;16.80;99.90;;;;;;4962289;28;20984;-77
2023/06/15 02:24:41;;;;;;;4.67;4.57;;;16.80;99.90;;;;;;4965822;28;20425;-76
2023/06/15 02:27:07;;;;;;;4.93;4.80;;;16.80;99.90;;;;;;4967566;28;20456;-76
2023/06/15 02:29:33;;;;;;;5.00;4.80;;;16.80;99.90;;;;;;4972274;28;20627;-76
2023/06/15 02:31:58;;;;;;;4.87;4.57;;;16.90;99.90;;;;;;4968760;28;20293;-76
2023/06/15 02:34:27;;;;;;;4.60;4.50;;;16.90;99.90;;;;;;4965367;28;20222;-76
2023/06/15 02:36:55;;;;;;;5.20;4.93;;;16.90;99.90;;;;;;4959582;28;20748;-76
2023/06/15 02:39:21;;;;;;;9.47;5.70;;;16.90;99.90;;;;;;4946397;28;20470;-76
2023/06/15 02:41:47;;;;;;;4.97;4.87;;;16.80;99.90;;;;;;4943440;28;20916;-76
2023/06/15 02:44:14;;;;;;;5.40;5.27;;;16.60;99.90;;;;;;4947928;28;20190;-77
2023/06/15 02:46:40;;;;;;;5.80;5.30;;;16.60;99.90;;;;;;4954134;28;20198;-76
2023/06/15 02:49:06;;;;;;;4.93;4.83;;;16.70;99.90;;;;;;4948615;28;21203;-76
2023/06/15 02:51:33;;;;;;;5.37;4.93;;;16.60;99.90;;;;;;4957196;28;20650;-76
2023/06/15 02:53:59;;;;;;;5.00;4.90;;;16.50;99.90;;;;;;4957755;28;20433;-76
2023/06/15 02:56:25;;;;;;;4.70;4.40;;;16.40;99.90;;;;;;4958684;28;20508;-76
2023/06/15 02:58:57;;;;;;;5.33;5.23;;;16.30;99.90;;;;;;4956117;28;20224;-76
2023/06/15 03:01:24;;;;;;;5.30;5.10;;;16.20;99.90;;;;;;4959659;28;20476;-77
2023/06/15 03:03:50;;;;;;;5.00;4.67;;;16.20;99.90;;;;;;4952398;28;20433;-77
2023/06/15 03:06:16;;;;;;;5.10;5.00;;;16.20;99.90;;;;;;4957576;28;20472;-77
2023/06/15 03:08:42;;;;;;;5.40;5.20;;;16.10;99.90;;;;;;4954374;28;20201;-76
2023/06/15 03:11:08;;;;;;;5.10;4.83;;;16.10;99.90;;;;;;4958003;28;20658;-75
2023/06/15 03:13:35;;;;;;;4.97;4.80;;;16.10;99.90;;;;;;4954032;28;20532;-75
2023/06/15 03:16:01;;;;;;;5.00;4.70;;;16.10;99.90;;;;;;4957959;28;20806;-76
2023/06/15 03:18:28;;;;;;;5.50;5.20;;;16.00;99.90;;;;;;4960179;28;20469;-77
2023/06/15 03:20:54;;;;;;;5.90;5.60;;;16.00;99.90;;;;;;4952197;28;20524;-76
2023/06/15 03:23:20;;;;;;;5.23;5.03;;;16.00;99.90;;;;;;4948889;28;20912;-75
2023/06/15 03:25:45;;;;;;;8.27;6.20;;;16.00;99.90;;;;;;4956540;28;20437;-76
2023/06/15 03:28:11;;;;;;;5.47;5.27;;;15.90;99.90;;;;;;4958250;28;20194;-75
2023/06/15 03:30:40;;;;;;;5.47;5.17;;;16.00;99.90;;;;;;4954501;28;20517;-77
2023/06/15 03:33:06;;;;;;;5.20;5.10;;;16.00;99.90;;;;;;4953810;28;20496;-75
2023/06/15 03:35:33;;;;;;;5.43;5.37;;;16.00;99.90;;;;;;4969551;28;21096;-75
2023/06/15 03:37:58;;;;;;;9.73;8.97;;;16.00;99.90;;;;;;4970972;28;20460;-76
2023/06/15 03:40:24;;;;;;;5.30;5.10;;;16.10;99.90;;;;;;4968762;28;20451;-76
2023/06/15 03:42:50;;;;;;;4.90;4.80;;;16.00;99.90;;;;;;4972147;28;20209;-76
2023/06/15 03:45:17;;;;;;;5.60;5.40;;;16.10;99.90;;;;;;4973731;28;20201;-76
2023/06/15 03:47:45;;;;;;;5.93;5.40;;;16.10;99.90;;;;;;4973563;28;20851;-76
2023/06/15 03:50:11;;;;;;;5.67;5.37;;;15.90;99.90;;;;;;4968478;28;20440;-77
2023/06/15 03:52:37;;;;;;;6.00;5.73;;;15.90;99.90;;;;;;4971635;28;20441;-76
2023/06/15 03:55:03;;;;;;;5.30;5.00;;;15.90;99.90;;;;;;4971864;28;21261;-76
2023/06/15 03:57:29;;;;;;;6.53;6.13;;;15.90;99.90;;;;;;4974163;28;20202;-76
2023/06/15 03:59:55;;;;;;;5.80;5.47;;;16.00;99.90;;;;;;4975152;28;20728;-76
2023/06/15 04:02:20;;;;;;;6.63;5.53;;;15.90;99.90;;;;;;4970043;28;20838;-75
2023/06/15 04:04:46;;;;;;;5.50;5.30;;;15.90;99.90;;;;;;4978604;28;21010;-76
2023/06/15 04:07:11;;;;;;;5.70;5.50;;;15.90;99.90;;;;;;4976126;28;20190;-77
2023/06/15 04:09:37;;;;;;;6.70;6.20;;;15.90;99.90;;;;;;4971539;28;20169;-76
2023/06/15 04:12:03;;;;;;;6.33;5.93;;;15.80;99.90;;;;;;4978999;28;20303;-77
2023/06/15 04:14:28;;;;;;;5.60;5.50;;;15.90;99.90;;;;;;4973600;28;20193;-76
2023/06/15 04:16:54;;;;;;;5.73;5.23;;;15.80;99.90;;;;;;4975097;28;20482;-76
2023/06/15 04:19:22;;;;;;;5.87;5.47;;;15.90;99.90;;;;;;4972487;28;20240;-76
2023/06/15 04:21:48;;;;;;;6.53;6.03;;;15.90;99.90;;;;;;4971892;28;20442;-77
2023/06/15 04:24:14;;;;;;;5.53;5.40;;;16.00;99.90;;;;;;4974451;28;20451;-77
2023/06/15 04:26:41;;;;;;;6.30;6.10;;;16.00;99.90;;;;;;4972684;28;20472;-77
2023/06/15 04:29:07;;;;;;;6.07;5.30;;;16.00;99.90;;;;;;4975734;28;20604;-75
2023/06/15 04:31:33;;;;;;;5.93;5.73;;;16.10;99.90;;;;;;4978631;28;20469;-76
2023/06/15 04:34:00;;;;;;;6.47;5.87;;;16.20;99.90;;;;;;4980703;28;20996;-77
2023/06/15 04:36:27;;;;;;;6.07;5.60;;;16.40;99.90;;;;;;4978141;28;20437;-77
2023/06/15 04:38:53;;;;;;;5.87;5.47;;;16.40;99.90;;;;;;4972934;28;20919;-77
2023/06/15 04:41:22;;;;;;;6.57;6.30;;;16.60;99.90;;;;;;4972081;28;20437;-77
2023/06/15 04:43:48;;;;;;;6.37;5.80;;;16.70;99.90;;;;;;4975502;28;20439;-78
2023/06/15 04:46:17;;;;;;;5.97;5.70;;;16.80;99.90;;;;;;4979326;28;20460;-77
2023/06/15 04:48:43;;;;;;;5.87;5.60;;;17.20;99.90;;;;;;4972721;28;20442;-77
2023/06/15 04:51:13;;;;;;;6.77;6.47;;;17.50;99.90;;;;;;4973985;28;20472;-77
2023/06/15 04:53:42;;;;;;;6.40;6.00;;;17.70;99.90;;;;;;4975766;28;20460;-77
2023/06/15 04:56:08;;;;;;;6.27;6.07;;;17.80;99.90;;;;;;4977664;28;20468;-77
2023/06/15 04:58:33;;;;;;;6.57;5.60;;;17.90;99.90;;;;;;4974751;28;20440;-76
2023/06/15 05:00:59;;;;;;;6.07;5.83;;;18.10;99.90;;;;;;4973905;28;20436;-76
2023/06/15 05:03:25;;;;;;;8.10;6.50;;;18.20;99.90;;;;;;4975970;28;20492;-77
2023/06/15 05:05:50;;;;;;;6.93;6.27;;;18.30;99.90;;;;;;4974224;28;20224;-77
2023/06/15 05:08:18;;;;;;;6.30;5.90;;;18.60;99.90;;;;;;4973687;28;20277;-77
2023/06/15 05:10:44;;;;;;;6.80;6.50;;;18.80;99.90;;;;;;4973193;28;20296;-77
2023/06/15 05:13:10;;;;;;;6.90;6.43;;;19.10;99.90;;;;;;4973330;28;20511;-77
2023/06/15 05:15:35;;;;;;;6.50;6.00;;;19.40;99.90;;;;;;4961133;28;20504;-77
2023/06/15 05:18:01;;;;;;;7.27;5.90;;;19.70;99.90;;;;;;4971650;28;20708;-77
2023/06/15 05:20:27;;;;;;;9.83;6.33;;;19.90;99.90;;;;;;4965323;28;20272;-77
2023/06/15 05:22:52;;;;;;;9.43;6.77;;;20.10;99.90;;;;;;4969318;28;20209;-77
2023/06/15 05:25:19;;;;;;;8.13;6.47;;;20.20;99.90;;;;;;4970903;28;20283;-77
2023/06/15 05:27:44;;;;;;;5.63;5.43;;;20.40;99.90;;;;;;4970964;28;20194;-76
2023/06/15 05:30:11;;;;;;;5.73;5.53;;;20.60;99.90;;;;;;4972309;28;20498;-77
2023/06/15 05:32:38;;;;;;;6.37;6.07;;;20.90;99.90;;;;;;4975243;28;20186;-77
2023/06/15 05:35:08;;;;;;;6.47;6.10;;;21.00;99.90;;;;;;4967814;28;20445;-77
2023/06/15 05:37:34;;;;;;;6.20;5.80;;;21.20;99.90;;;;;;4975887;28;20804;-77
2023/06/15 05:40:01;;;;;;;6.13;5.87;;;21.40;99.90;;;;;;4969847;28;20459;-77
2023/06/15 05:42:26;;;;;;;5.60;5.40;;;21.70;99.90;;;;;;4972816;28;20421;-77
2023/06/15 05:44:52;;;;;;;6.57;6.17;;;21.90;99.90;;;;;;4970327;28;20518;-77
2023/06/15 05:47:18;;;;;;;7.07;6.37;;;22.00;99.60;;;;;;4977112;28;20428;-78
2023/06/15 05:49:43;;;;;;;6.40;5.80;;;22.30;98.50;;;;;;4980959;28;20802;-78
2023/06/15 05:52:09;;;;;;;6.50;6.00;;;22.50;97.80;;;;;;4969517;28;20210;-78
2023/06/15 05:54:35;;;;;;;6.27;5.87;;;22.70;96.60;;;;;;4964728;28;20680;-74
2023/06/15 05:57:01;;;;;;;6.00;5.70;;;23.00;96.00;;;;;;4985710;28;20417;-75
2023/06/15 05:59:27;;;;;;;5.97;5.50;;;23.50;94.20;;;;;;4966910;28;20240;-76
2023/06/15 06:01:53;;;;;;;6.80;6.20;;;24.00;91.50;;;;;;4976648;28;20413;-76
2023/06/15 06:04:19;;;;;;;7.07;6.40;;;24.20;89.90;;;;;;4966703;28;20432;-76
2023/06/15 06:06:44;;;;;;;6.37;5.97;;;24.30;87.50;;;;;;4967570;28;20258;-77
2023/06/15 06:09:10;;;;;;;5.43;5.17;;;24.80;85.50;;;;;;4977424;28;20190;-77
2023/06/15 06:11:36;;;;;;;5.90;5.50;;;25.20;81.70;;;;;;4966924;28;20217;-77
2023/06/15 06:14:01;;;;;;;5.37;5.10;;;25.40;78.60;;;;;;4976736;28;20206;-77
2023/06/15 06:16:27;;;;;;;5.93;5.40;;;25.60;75.70;;;;;;4971436;28;20193;-76
2023/06/15 06:18:52;;;;;;;5.67;5.47;;;25.70;74.10;;;;;;4971956;28;20392;-76
2023/06/15 06:21:18;;;;;;;5.93;5.40;;;25.80;71.70;;;;;;4968094;28;20201;-77
2023/06/15 06:23:44;;;;;;;5.97;5.60;;;25.90;71.00;;;;;;4967391;28;20209;-77
2023/06/15 06:26:12;;;;;;;5.40;5.10;;;26.10;69.20;;;;;;4967045;28;20225;-79
2023/06/15 06:28:37;;;;;;;5.20;5.00;;;26.30;67.30;;;;;;4976803;28;20523;-77
2023/06/15 06:31:03;;;;;;;4.63;4.43;;;26.70;66.50;;;;;;4970283;28;20547;-76
2023/06/15 06:33:29;;;;;;;5.83;5.40;;;27.00;64.90;;;;;;4969644;28;20185;-77
2023/06/15 06:35:54;;;;;;;6.00;5.53;;;27.20;63.60;;;;;;4977631;28;20241;-76
2023/06/15 06:38:20;;;;;;;4.73;4.43;;;27.70;61.70;;;;;;4969224;28;20209;-77
2023/06/15 06:40:46;;;;;;;4.57;4.43;;;28.10;59.90;;;;;;4970560;28;20898;-77
2023/06/15 06:43:11;;;;;;;5.10;4.80;;;28.40;59.10;;;;;;4975076;28;20199;-77
2023/06/15 06:45:37;;;;;;;7.03;4.77;;;28.40;58.70;;;;;;4962311;28;20796;-77
2023/06/15 06:48:03;;;;;;;4.80;4.60;;;28.50;58.20;;;;;;4968593;28;20190;-77
2023/06/15 06:50:28;;;;;;;4.80;4.60;;;28.70;57.50;;;;;;4981330;28;20417;-76
2023/06/15 06:52:54;;;;;;;5.40;5.00;;;29.00;56.90;;;;;;4968283;28;20185;-78
2023/06/15 06:55:19;;;;;;;4.70;4.50;;;29.10;55.70;;;;;;4970096;28;20189;-77
2023/06/15 06:57:45;;;;;;;5.20;4.80;;;29.10;55.50;;;;;;4966256;28;20213;-77
2023/06/15 07:00:11;;;;;;;4.30;4.30;;;29.30;54.90;;;;;;4965674;28;20625;-78
2023/06/15 07:02:37;;;;;;;5.60;5.07;;;29.50;54.10;;;;;;4969953;28;20248;-77
2023/06/15 07:05:03;;;;;;;5.10;5.00;;;29.60;53.50;;;;;;4967050;28;20447;-76
2023/06/15 07:07:28;;;;;;;6.30;4.73;;;29.80;52.60;;;;;;4974104;28;20868;-77
2023/06/15 07:09:54;;;;;;;4.60;4.30;;;30.00;52.70;;;;;;4973207;28;20201;-77
2023/06/15 07:12:20;;;;;;;4.57;4.17;;;30.30;49.80;;;;;;4989296;28;20467;-78
2023/06/15 07:14:46;;;;;;;4.67;4.37;;;30.30;48.20;;;;;;4965191;28;20849;-77
2023/06/15 07:17:12;;;;;;;5.20;4.90;;;30.50;48.30;;;;;;4966944;28;20724;-79
2023/06/15 07:19:37;;;;;;;4.53;4.17;;;30.90;48.20;;;;;;4964352;28;20211;-78
2023/06/15 07:22:03;;;;;;;4.90;4.60;;;31.40;47.00;;;;;;4967157;28;20483;-78
2023/06/15 07:24:29;;;;;;;4.80;4.50;;;31.20;45.90;;;;;;4969954;28;20335;-78
2023/06/15 07:26:54;;;;;;;6.27;5.67;;;31.80;45.40;;;;;;4972920;28;20543;-77
2023/06/15 07:29:20;;;;;;;6.63;4.43;;;31.90;44.80;;;;;;4984283;28;20224;-78
2023/06/15 07:31:46;;;;;;;4.27;4.17;;;32.20;44.00;;;;;;4968402;28;20443;-77
2023/06/15 07:34:11;;;;;;;4.27;4.10;;;32.20;43.40;;;;;;4969084;28;20680;-77
2023/06/15 07:36:37;;;;;;;4.70;4.30;;;32.70;42.60;;;;;;4973697;28;20425;-77
2023/06/15 07:39:03;;;;;;;5.40;4.90;;;32.10;41.60;;;;;;4958831;28;20220;-77
2023/06/15 07:41:29;;;;;;;4.50;4.10;;;32.20;42.00;;;;;;4986944;28;20833;-77
2023/06/15 07:43:54;;;;;;;8.23;4.20;;;32.70;41.50;;;;;;4966955;28;20202;-76
2023/06/15 07:46:20;;;;;;;5.20;4.80;;;32.90;41.30;;;;;;4965910;28;20200;-78
2023/06/15 07:48:46;;;;;;;4.73;4.33;;;32.30;41.50;;;;;;4970139;28;20300;-78
2023/06/15 07:51:11;;;;;;;4.63;4.33;;;32.60;41.60;;;;;;4967524;28;20483;-78
2023/06/15 07:53:38;;;;;;;4.77;4.50;;;32.20;41.80;;;;;;4969036;28;20250;-78
2023/06/15 07:56:04;;;;;;;6.13;4.80;;;32.10;42.10;;;;;;4972919;28;20197;-78
2023/06/15 07:58:30;;;;;;;5.03;4.63;;;32.80;41.60;;;;;;4968385;28;20646;-79
2023/06/15 08:00:56;;;;;;;4.90;4.60;;;;;;;;;;4967723;28;20269;-78
2023/06/15 08:03:22;;;;;;;4.80;4.50;;;;;;;;;;4966768;28;20212;-79
2023/06/15 08:05:48;;;;;;;4.00;3.90;;;;;;;;;;4970349;28;20953;-78
2023/06/15 08:08:14;;;;;;;3.87;3.70;;;;;;;;;;4963087;28;20438;-78
2023/06/15 08:10:40;;;;;;;4.17;3.97;;;;;;;;;;4960368;28;20543;-77
2023/06/15 08:13:06;;;;;;;4.17;3.97;;;;;;;;;;4969075;28;20955;-78
2023/06/15 08:15:33;;;;;;;3.80;3.60;;;;;;;;;;4964953;28;20463;-78
2023/06/15 08:17:59;;;;;;;3.90;3.80;;;;;;;;;;4970069;28;20452;-79
2023/06/15 08:20:26;;;;;;;4.80;4.00;;;;;;;;;;4966182;28;20511;-78
2023/06/15 08:22:52;;;;;;;3.87;3.67;;;;;;;;;;4976154;28;20515;-76
2023/06/15 08:25:18;;;;;;;4.20;4.00;;;;;;;;;;4968933;28;20440;-80
2023/06/15 08:27:44;;;;;;;4.73;4.40;;;;;;;;;;4969751;28;20482;-81
2023/06/15 08:30:10;;;;;;;6.13;4.40;;;;;;;;;;4969440;28;21007;-79
2023/06/15 08:32:36;;;;;;;4.77;4.47;;;;;;;;;;4982440;28;21050;-81
2023/06/15 08:35:06;;;;;;;6.00;3.90;;;;;;;;;;4969220;28;20472;-81
2023/06/15 08:37:32;;;;;;;4.70;4.57;;;;;;;;;;4969301;28;20452;-79
2023/06/15 08:39:58;;;;;;;3.67;3.37;;;;;;;;;;4971298;28;20813;-79
2023/06/15 08:42:25;;;;;;;3.73;3.43;;;;;;;;;;4988418;28;20428;-80
2023/06/15 08:44:54;;;;;;;5.10;4.80;;;;;;;;;;4973648;28;20768;-80
2023/06/15 08:47:21;;;;;;;5.20;4.77;;;;;;;;;;4970231;28;20435;-79
2023/06/15 08:49:47;;;;;;;16.30;5.47;;;;;;;;;;4973663;28;20539;-79
2023/06/15 08:52:16;;;;;;;4.50;4.20;;;;;;;;;;4987192;28;20555;-80
2023/06/15 08:54:43;;;;;;;4.53;4.27;;;;;;;;;;4972138;28;20538;-81
2023/06/15 08:57:09;;;;;;;4.93;4.53;;;;;;;;;;4990455;28;20773;-79
2023/06/15 08:59:36;;;;;;;4.30;4.00;;;;;;;;;;4971517;28;20445;-79
2023/06/15 09:02:03;;;;;;;3.87;3.80;;;;;;;;;;4973631;28;20425;-80
2023/06/15 09:04:30;;;;;;;4.97;4.50;;;;;;;;;;4971965;28;20976;-80
2023/06/15 09:06:58;;;;;;;5.60;5.50;;;;;;;;;;4976228;28;20429;-79
2023/06/15 09:09:25;;;;;;;4.57;4.20;;;;;;;;;;4974533;28;20535;-79
2023/06/15 09:11:51;;;;;;;4.70;4.40;;;;;;;;;;4973931;28;20534;-78
2023/06/15 09:14:17;;;;;;;4.47;4.27;;;;;;;;;;4976621;28;20436;-78
2023/06/15 09:16:43;;;;;;;4.10;4.00;;;;;;;;;;4982104;28;20440;-80
2023/06/15 09:19:16;;;;;;;4.50;4.30;;;;;;;;;;4989559;28;20540;-79
2023/06/15 09:21:43;;;;;;;6.20;5.70;;;;;;;;;;4967178;28;20432;-79
2023/06/15 09:24:10;;;;;;;4.57;4.40;;;;;;;;;;4966925;28;20453;-79
2023/06/15 09:26:41;;;;;;;4.40;4.20;;;;;;;;;;4965589;28;20487;-81
2023/06/15 09:29:13;;;;;;;4.83;4.70;;;;;;;;;;4969903;28;20444;-79
2023/06/15 09:31:40;;;;;;;5.27;4.57;;;;;;;;;;4975405;28;20452;-81
2023/06/15 09:34:07;;;;;;;5.10;4.60;;;;;;;;;;4961742;28;20458;-80
2023/06/15 09:36:35;;;;;;;5.30;4.63;;;;;;;;;;4961532;28;20486;-79
2023/06/15 09:39:03;;;;;;;4.83;4.17;;;;;;;;;;4952978;28;20449;-77
2023/06/15 09:41:29;;;;;;;5.27;4.23;;;;;;;;;;4961253;28;20453;-79
2023/06/15 09:43:55;;;;;;;4.00;4.00;;;;;;;;;;4951753;28;20457;-80
2023/06/15 09:46:21;;;;;;;3.47;3.37;;;;;;;;;;4953897;28;20460;-78
2023/06/15 09:48:47;;;;;;;5.07;4.67;;;;;;;;;;4957015;28;20600;-79
2023/06/15 09:51:15;;;;;;;5.50;4.50;;;;;;;;;;4952661;28;20579;-79
2023/06/15 09:53:42;;;;;;;4.07;3.50;;;;;;;;;;4955119;28;20912;-78
2023/06/15 09:56:09;;;;;;;5.77;3.70;;;;;;;;;;4957428;28;20437;-80
2023/06/15 09:58:35;;;;;;;4.17;3.63;;;;;;;;;;4957477;28;20971;-77
2023/06/15 10:01:04;;;;;;;4.50;4.07;;;;;;;;;;4959771;28;20445;-78
2023/06/15 10:03:31;;;;;;;4.33;4.23;;;;;;;;;;4958340;28;20442;-78
2023/06/15 10:06:03;;;;;;;5.00;4.53;;;;;;;;;;4957335;28;20434;-79
2023/06/15 10:08:31;;;;;;;4.30;4.17;;;;;;;;;;4951925;28;20449;-77
2023/06/15 10:10:59;;;;;;;5.60;5.30;;;;;;;;;;4956445;28;20556;-78
2023/06/15 10:13:33;;;;;;;4.67;4.50;;;;;;;;;;4957789;28;20935;-80
2023/06/15 10:16:00;;;;;;;5.90;4.87;;;;;;;;;;4956112;28;20449;-80
2023/06/15 10:18:27;;;;;;;4.97;4.57;;;;;;;;;;4964094;28;21027;-77
2023/06/15 10:20:54;;;;;;;4.83;4.53;;;;;;;;;;4957045;28;20442;-77
2023/06/15 10:23:25;;;;;;;5.10;4.90;;;;;;;;;;4959276;28;20624;-77
2023/06/15 10:25:55;;;;;;;3.83;3.70;;;;;;;;;;4951720;28;20788;-78
2023/06/15 10:28:23;;;;;;;4.80;4.17;;;;;;;;;;4955916;28;20509;-78
2023/06/15 10:31:01;;;;;;;4.67;4.20;;;;;;;;;;4954573;28;20465;-79
2023/06/15 10:33:41;;;;;;;4.40;4.10;;;;;;;;;;4951434;28;20481;-77
2023/06/15 10:36:13;;;;;;;5.00;4.67;;;;;;;;;;4950546;28;20489;-80
2023/06/15 10:38:49;;;;;;;3.80;3.60;;;;;;;;;;4951966;28;20434;-79
2023/06/15 10:41:15;;;;;;;5.07;4.30;;;;;;;;;;4953416;28;20441;-79
2023/06/15 10:43:56;;;;;;;3.97;3.70;;;;;;;;;;4951134;28;20438;-79
2023/06/15 10:46:28;;;;;;;4.87;4.53;;;;;;;;;;4952997;28;20586;-79
2023/06/15 10:48:55;;;;;;;4.20;4.00;;;;;;;;;;4942637;28;20853;-78
2023/06/15 10:51:21;;;;;;;3.87;3.67;;;;;;;;;;4963047;28;20569;-76
2023/06/15 10:53:47;;;;;;;4.00;3.80;;;;;;;;;;4950496;28;20445;-78
2023/06/15 10:56:17;;;;;;;4.00;3.80;;;;;;;;;;4953565;28;20476;-80
2023/06/15 10:58:52;;;;;;;3.60;3.50;;;;;;;;;;4949429;28;20556;-77
2023/06/15 11:01:20;;;;;;;4.10;3.90;;;;;;;;;;4957547;28;20441;-78
2023/06/15 11:03:46;;;;;;;4.63;4.43;;;;;;;;;;4948739;28;20438;-78
2023/06/15 11:06:16;;;;;;;4.10;3.87;;;;;;;;;;4953569;28;20717;-77
2023/06/15 11:08:42;;;;;;;3.90;3.80;;;;;;;;;;4949713;28;20834;-78
2023/06/15 11:11:10;;;;;;;3.63;3.53;;;;;;;;;;4950223;28;20474;-78
2023/06/15 11:13:54;;;;;;;3.70;3.70;;;;;;;;;;4949505;28;20725;-77
2023/06/15 11:16:23;;;;;;;4.77;4.40;;;;;;;;;;4955413;28;20431;-77
2023/06/15 11:18:55;;;;;;;5.03;4.87;;;;;;;;;;4951266;28;20469;-76
2023/06/15 11:21:28;;;;;;;4.50;4.30;;;;;;;;;;4955498;28;20696;-77
2023/06/15 11:23:57;;;;;;;4.03;3.83;;;;;;;;;;4947164;28;21037;-77
2023/06/15 11:26:28;;;;;;;4.57;4.47;;;;;;;;;;4954289;28;20441;-78
2023/06/15 11:28:57;;;;;;;3.53;3.43;;;;;;;;;;4948830;28;20741;-79
2023/06/15 11:31:23;;;;;;;3.83;3.67;;;;;;;;;;4950905;28;20482;-78
2023/06/15 11:33:49;;;;;;;3.80;3.70;;;;;;;;;;4952404;28;20492;-77
2023/06/15 11:36:15;;;;;;;3.67;3.37;;;;;;;;;;4974362;28;20432;-78
2023/06/15 11:38:41;;;;;;;3.80;3.70;;;;;;;;;;4966923;28;20433;-78
2023/06/15 11:41:09;;;;;;;3.40;3.40;;;;;;;;;;4970752;28;20867;-79
2023/06/15 11:43:36;;;;;;;3.67;3.40;;;;;;;;;;4968837;28;20480;-78
2023/06/15 11:46:02;;;;;;;3.77;3.67;;;;;;;;;;4976626;28;20437;-76
2023/06/15 11:48:28;;;;;;;3.40;3.10;;;;;;;;;;4987664;28;20444;-79
2023/06/15 11:50:54;;;;;;;3.73;3.60;;;;;;;;;;4977121;28;20514;-78
2023/06/15 11:53:20;;;;;;;3.97;3.77;;;;;;;;;;4968929;28;20442;-76
2023/06/15 11:55:46;;;;;;;4.67;4.57;;;;;;;;;;4969843;28;20978;-76
2023/06/15 11:58:13;;;;;;;3.70;3.43;;;;;;;;;;4984440;28;20580;-77
2023/06/15 12:00:39;;;;;;;3.90;3.90;;;;;;;;;;4972305;28;20947;-77
2023/06/15 12:03:09;;;;;;;3.60;3.60;;;;;;;;;;4969320;28;20777;-76
2023/06/15 12:05:35;;;;;;;4.50;4.27;;;;;;;;;;4971208;28;20440;-77
2023/06/15 12:08:02;;;;;;;6.13;5.70;;;;;;;;;;4965124;28;20433;-78
2023/06/15 12:10:28;;;;;;;4.10;3.90;;;;;;;;;;4966162;28;20472;-77
2023/06/15 12:12:58;;;;;;;4.77;3.27;;;;;;;;;;4980644;28;20745;-77
2023/06/15 12:15:24;;;;;;;4.00;3.77;;;;;;;;;;4969675;28;20932;-77
2023/06/15 12:17:50;;;;;;;3.77;3.67;;;;;;;;;;4981022;28;20993;-77
2023/06/15 12:20:17;;;;;;;3.67;3.60;;;;;;;;;;4978770;28;20535;-77
2023/06/15 12:22:43;;;;;;;3.20;3.20;;;;;;;;;;4967766;28;20448;-77
2023/06/15 12:25:09;;;;;;;3.23;3.23;;;;;;;;;;4976883;28;20508;-77
2023/06/15 12:27:45;;;;;;;4.43;4.23;;;;;;;;;;4972397;28;20425;-77
2023/06/15 12:30:13;;;;;;;3.40;3.20;;;;;;;;;;4971862;28;20507;-78
2023/06/15 12:32:45;;;;;;;3.53;3.43;;;;;;;;;;4987019;28;20991;-78
2023/06/15 12:35:32;;;;;;;2.87;2.87;;;;;;;;;;5000313;28;20959;-78
2023/06/15 12:37:59;;;;;;;5.50;5.30;;;;;;;;;;4971131;28;20884;-79
2023/06/15 12:40:25;;;;;;;3.60;3.00;;;;;;;;;;4971165;28;20496;-78
2023/06/15 12:43:01;;;;;;;4.17;3.80;;;;;;;;;;4971537;28;20810;-77
2023/06/15 12:45:27;;;;;;;4.13;3.57;;;;;;;;;;4991818;28;20446;-76
2023/06/15 12:47:53;;;;;;;4.73;4.10;;;;;;;;;;4970857;28;20950;-77
2023/06/15 12:50:19;;;;;;;4.53;4.13;;;;;;;;;;4977424;28;20417;-78
2023/06/15 12:52:45;;;;;;;3.80;3.70;;;;;;;;;;4977554;28;20476;-77
2023/06/15 12:55:12;;;;;;;3.20;3.20;;;;;;;;;;4978869;28;20440;-78
2023/06/15 12:57:37;;;;;;;4.47;4.23;;;35.10;29.50;;;;;;4987714;28;20468;-75
2023/06/15 13:00:04;;;;;;;3.60;3.27;;;35.60;29.90;;;;;;4965834;28;20851;-78
2023/06/15 13:02:32;;;;;;;3.60;3.47;;;35.80;29.50;;;;;;4971498;28;20192;-77
2023/06/15 13:05:02;;;;;;;4.17;3.87;;;35.50;29.60;;;;;;4982849;28;20978;-78
2023/06/15 13:07:31;;;;;;;3.47;3.27;;;35.70;29.80;;;;;;4979225;28;20773;-77
2023/06/15 13:09:59;;;;;;;3.73;3.63;;;36.20;29.60;;;;;;4973081;28;20453;-77
2023/06/15 13:12:25;;;;;;;3.87;3.77;;;37.00;29.70;;;;;;4996044;28;20839;-78
2023/06/15 13:14:54;;;;;;;4.50;4.20;;;38.00;29.60;;;;;;4970121;28;20434;-78
2023/06/15 13:17:26;;;;;;;6.03;3.20;;;38.40;29.20;;;;;;4974883;28;21080;-77
2023/06/15 13:19:52;;;;;;;3.63;3.53;;;39.00;29.10;;;;;;4971312;28;20434;-78
2023/06/15 13:22:18;;;;;;;3.23;3.13;;;37.00;28.90;;;;;;4962144;28;20458;-78
2023/06/15 13:24:44;;;;;;;3.70;3.50;;;35.60;29.50;;;;;;4988762;28;20433;-79